YCOY weather

Coral Bay Airport
Western Australia, Australia

Public forecast

Using degrees Celsius for public forecast. Weather courtesy of forecast.io.

Closest aviation weather report (METAR) to Coral Bay Airport

Closest report is Learmonth Airport, 56.4 nm (104.5 km) NNE. Retrieved 2019/11/13 13:30 UTC (13 minutes ago):

YPLM 131330Z AUTO 25004KT 9999 // NCD 23/17 Q1015 RF000/0000

Closest aviation forecast (TAF) to Coral Bay Airport

Closest forecast is Learmonth Airport, 56.4 nm (104.5 km) NNE. Retrieved 2019/11/13 12:00 UTC (2 hours ago):

TAF YPLM 131127Z 1312/1412 23014KT CAVOK FM131800 18008KT 9999 SCT010 FM140100 12010KT CAVOK FM140600 27012KT CAVOK